createdAt,value
2023-04-15T00:00:40.202Z,24.80
2023-04-15T00:06:02.846Z,24.83
2023-04-15T00:08:24.893Z,24.63
2023-04-15T00:10:21.020Z,24.10
2023-04-15T00:12:21.965Z,24.20
2023-04-15T00:14:21.376Z,24.63
2023-04-15T00:16:27.028Z,25.27
2023-04-15T00:18:55.634Z,26.20
2023-04-15T00:21:00.426Z,26.43
2023-04-15T00:23:04.799Z,26.07
2023-04-15T00:25:15.925Z,26.83
2023-04-15T00:30:41.606Z,24.63
2023-04-15T00:37:18.812Z,25.80
2023-04-15T00:39:39.559Z,26.37
2023-04-15T00:41:40.629Z,27.03
2023-04-15T00:43:50.739Z,27.67
2023-04-15T00:46:02.946Z,28.10
2023-04-15T00:48:11.796Z,27.83
2023-04-15T00:50:11.343Z,26.53
2023-04-15T00:52:09.228Z,28.30
2023-04-15T00:54:10.669Z,28.00
2023-04-15T00:56:08.503Z,29.10
2023-04-15T00:58:08.804Z,28.80
2023-04-15T01:00:06.309Z,30.20
2023-04-15T01:02:04.586Z,29.57
2023-04-15T01:04:12.827Z,29.63
2023-04-15T01:06:30.637Z,29.23
2023-04-15T01:08:26.808Z,29.17
2023-04-15T01:12:52.944Z,30.20
2023-04-15T01:14:53.571Z,31.60
2023-04-15T01:17:01.376Z,31.23
2023-04-15T01:19:01.654Z,30.50
2023-04-15T01:21:21.352Z,30.07
2023-04-15T01:23:19.969Z,29.33
2023-04-15T01:25:22.513Z,30.27
2023-04-15T01:27:20.994Z,31.03
2023-04-15T01:29:21.928Z,28.83
2023-04-15T01:31:21.112Z,30.50
2023-04-15T01:33:19.770Z,31.43
2023-04-15T01:35:15.104Z,31.17
2023-04-15T01:37:11.409Z,30.27
2023-04-15T01:39:11.531Z,31.13
2023-04-15T01:41:10.667Z,31.97
2023-04-15T01:43:12.398Z,31.73
2023-04-15T01:45:09.311Z,30.27
2023-04-15T01:47:07.167Z,30.90
2023-04-15T01:49:03.494Z,30.80
2023-04-15T01:51:25.571Z,31.10
2023-04-15T01:53:29.932Z,38.47
2023-04-15T01:55:29.002Z,35.53
2023-04-15T01:58:00.184Z,35.20
2023-04-15T02:00:37.199Z,35.20
2023-04-15T02:02:52.677Z,39.13
2023-04-15T02:05:03.828Z,41.80
2023-04-15T02:07:40.110Z,38.77
2023-04-15T02:09:53.471Z,31.33
2023-04-15T02:11:49.525Z,31.53
2023-04-15T02:14:21.247Z,32.53
2023-04-15T02:16:37.263Z,31.83
2023-04-15T02:18:52.202Z,32.13
2023-04-15T02:20:50.890Z,33.07
2023-04-15T02:22:56.982Z,33.07
2023-04-15T02:24:54.333Z,34.07
2023-04-15T02:26:56.325Z,32.20
2023-04-15T02:28:53.159Z,32.83
2023-04-15T02:30:53.564Z,32.67
2023-04-15T02:32:56.920Z,32.37
2023-04-15T02:34:58.280Z,31.97
2023-04-15T02:37:02.848Z,31.53
2023-04-15T02:39:23.726Z,31.97
2023-04-15T02:41:21.834Z,30.40
2023-04-15T02:43:25.901Z,30.00
2023-04-15T02:45:24.374Z,31.33
2023-04-15T02:47:22.433Z,34.50
2023-04-15T02:49:26.660Z,33.43
2023-04-15T02:51:26.105Z,32.73
2023-04-15T02:53:21.727Z,33.43
2023-04-15T02:55:18.316Z,33.20
2023-04-15T02:57:13.651Z,31.70
2023-04-15T02:59:10.394Z,31.77
2023-04-15T03:01:08.821Z,31.63
2023-04-15T03:03:16.899Z,31.60
2023-04-15T03:05:18.202Z,31.60
2023-04-15T03:07:13.829Z,32.03
2023-04-15T03:09:09.191Z,31.87
2023-04-15T03:11:14.300Z,32.93
2023-04-15T03:13:10.836Z,29.80
2023-04-15T03:15:06.945Z,29.50
2023-04-15T03:17:04.949Z,30.83
2023-04-15T03:19:00.747Z,30.50
2023-04-15T03:20:58.650Z,29.70
2023-04-15T03:22:54.053Z,30.57
2023-04-15T03:24:49.083Z,29.40
2023-04-15T03:26:44.634Z,29.37
2023-04-15T03:28:39.674Z,30.13
2023-04-15T03:30:35.153Z,28.80
2023-04-15T03:32:30.190Z,29.50
2023-04-15T03:34:25.843Z,30.87
2023-04-15T03:36:23.527Z,30.80
2023-04-15T03:38:19.895Z,28.20
2023-04-15T03:40:15.868Z,28.97
2023-04-15T03:42:11.328Z,28.23
2023-04-15T03:44:06.483Z,29.00
2023-04-15T03:46:02.078Z,28.23
2023-04-15T03:48:03.623Z,27.40
2023-04-15T03:50:07.489Z,27.40
2023-04-15T03:52:05.148Z,28.73
2023-04-15T03:54:00.689Z,27.43
2023-04-15T03:55:57.457Z,27.57
2023-04-15T03:57:52.934Z,27.00
2023-04-15T03:59:48.048Z,27.80
2023-04-15T04:01:43.585Z,27.03
2023-04-15T04:03:38.851Z,26.40
2023-04-15T04:05:39.084Z,28.87
2023-04-15T04:07:36.747Z,31.97
2023-04-15T04:09:32.197Z,25.50
2023-04-15T04:11:28.298Z,26.00
2023-04-15T04:13:23.716Z,26.13
2023-04-15T04:15:18.856Z,27.13
2023-04-15T04:17:14.741Z,25.10
2023-04-15T04:19:10.138Z,24.87
2023-04-15T04:21:05.672Z,25.63
2023-04-15T04:23:03.317Z,26.23
2023-04-15T04:25:01.527Z,24.60
2023-04-15T04:26:57.438Z,24.67
2023-04-15T04:28:52.886Z,25.33
2023-04-15T04:30:48.314Z,25.53
2023-04-15T04:32:43.832Z,25.73
2023-04-15T04:34:39.058Z,25.50
2023-04-15T04:36:37.077Z,25.63
2023-04-15T04:38:34.721Z,25.17
2023-04-15T04:40:30.267Z,25.37
2023-04-15T04:42:25.574Z,24.10
2023-04-15T04:44:21.012Z,24.43
2023-04-15T04:46:16.144Z,23.87
2023-04-15T04:48:11.714Z,23.30
2023-04-15T04:50:07.409Z,23.57
2023-04-15T04:52:03.087Z,23.73
2023-04-15T04:54:03.074Z,23.30
2023-04-15T04:55:59.131Z,23.47
2023-04-15T04:57:54.151Z,23.73
2023-04-15T04:59:49.577Z,23.20
2023-04-15T05:01:44.856Z,22.97
2023-04-15T05:03:40.345Z,23.00
2023-04-15T05:05:35.642Z,23.10
2023-04-15T05:07:30.999Z,22.17
2023-04-15T05:09:28.926Z,22.17
2023-04-15T05:11:24.332Z,23.13
2023-04-15T05:13:19.503Z,22.70
2023-04-15T05:15:15.059Z,22.03
2023-04-15T05:17:11.436Z,21.97
2023-04-15T05:19:07.885Z,21.57
2023-04-15T05:21:03.078Z,21.47
2023-04-15T05:22:58.503Z,21.17
2023-04-15T05:24:56.106Z,21.43
2023-04-15T05:26:51.625Z,22.23
2023-04-15T05:28:46.696Z,22.00
2023-04-15T05:30:42.812Z,22.53
2023-04-15T05:32:37.971Z,21.87
2023-04-15T05:34:33.352Z,21.30
2023-04-15T05:36:28.842Z,22.73
2023-04-15T05:38:24.287Z,22.13
2023-04-15T05:40:22.419Z,22.20
2023-04-15T05:42:17.906Z,20.53
2023-04-15T05:44:13.002Z,20.57
2023-04-15T05:46:08.733Z,21.17
2023-04-15T05:48:03.861Z,19.10
2023-04-15T05:49:59.301Z,19.47
2023-04-15T05:51:54.409Z,18.17
2023-04-15T05:53:49.860Z,18.47
2023-04-15T05:55:47.503Z,17.30
2023-04-15T05:57:42.932Z,17.63
2023-04-15T05:59:38.956Z,17.80
2023-04-15T06:01:34.374Z,17.40
2023-04-15T06:03:29.640Z,17.93
2023-04-15T06:05:25.112Z,16.93
2023-04-15T06:07:20.162Z,17.70
2023-04-15T06:09:15.504Z,17.83
2023-04-15T06:11:13.342Z,17.80
2023-04-15T06:13:08.939Z,50.17
2023-04-15T06:15:04.173Z,24.87
2023-04-15T06:16:59.579Z,16.70
2023-04-15T06:18:54.673Z,16.10
2023-04-15T06:20:50.656Z,16.27
2023-04-15T06:22:46.311Z,15.70
2023-04-15T06:24:42.320Z,15.43
2023-04-15T06:26:42.082Z,16.57
2023-04-15T06:28:37.688Z,15.77
2023-04-15T06:30:32.747Z,15.27
2023-04-15T06:32:28.379Z,14.60
2023-04-15T06:34:23.540Z,15.10
2023-04-15T06:36:19.015Z,15.40
2023-04-15T06:38:14.566Z,14.77
2023-04-15T06:40:12.093Z,13.90
2023-04-15T06:42:09.771Z,14.73
2023-04-15T06:44:05.230Z,13.83
2023-04-15T06:46:00.614Z,13.00
2023-04-15T06:47:56.149Z,12.83
2023-04-15T06:49:51.185Z,12.70
2023-04-15T06:51:46.802Z,13.63
2023-04-15T06:53:44.048Z,12.30
2023-04-15T06:55:40.347Z,11.77
2023-04-15T06:57:38.128Z,13.03
2023-04-15T06:59:33.520Z,12.40
2023-04-15T07:01:28.857Z,12.10
2023-04-15T07:03:24.328Z,12.97
2023-04-15T07:05:20.288Z,49.03
2023-04-15T07:07:15.880Z,41.77
2023-04-15T07:09:10.953Z,14.17
2023-04-15T07:11:06.448Z,13.30
2023-04-15T07:13:04.177Z,11.47
2023-04-15T07:14:59.721Z,12.00
2023-04-15T07:16:54.787Z,12.80
2023-04-15T07:18:52.456Z,12.13
2023-04-15T07:20:47.585Z,10.97
2023-04-15T07:22:43.771Z,11.50
2023-04-15T07:24:38.845Z,12.23
2023-04-15T07:26:34.358Z,11.47
2023-04-15T07:28:32.024Z,11.63
2023-04-15T07:30:27.353Z,11.30
2023-04-15T07:32:22.548Z,11.97
2023-04-15T07:34:17.986Z,14.87
2023-04-15T07:36:13.390Z,12.17
2023-04-15T07:38:08.753Z,11.77
2023-04-15T07:40:04.886Z,12.47
2023-04-15T07:42:00.762Z,12.57
2023-04-15T07:43:58.400Z,12.20
2023-04-15T07:45:53.837Z,11.77
2023-04-15T07:47:48.992Z,12.70
2023-04-15T07:49:45.307Z,13.90
2023-04-15T07:51:40.327Z,13.20
2023-04-15T07:53:35.861Z,12.87
2023-04-15T07:55:30.943Z,12.80
2023-04-15T07:57:26.423Z,12.70
2023-04-15T07:59:24.044Z,12.83
2023-04-15T08:01:19.628Z,12.00
2023-04-15T08:03:16.902Z,12.23
2023-04-15T08:05:13.263Z,12.77
2023-04-15T08:07:08.408Z,13.03
2023-04-15T08:09:04.091Z,12.27
2023-04-15T08:10:59.584Z,12.87
2023-04-15T08:12:55.162Z,13.10
2023-04-15T08:14:53.205Z,12.67
2023-04-15T08:16:48.588Z,11.93
2023-04-15T08:18:43.659Z,18.83
2023-04-15T08:20:39.159Z,36.43
2023-04-15T08:22:34.610Z,13.37
2023-04-15T08:24:30.468Z,12.10
2023-04-15T08:26:26.004Z,12.37
2023-04-15T08:28:21.682Z,12.53
2023-04-15T08:30:19.553Z,17.87
2023-04-15T08:32:15.399Z,15.40
2023-04-15T08:34:10.663Z,13.00
2023-04-15T08:36:06.635Z,12.47
2023-04-15T08:38:01.751Z,12.80
2023-04-15T08:39:57.424Z,12.93
2023-04-15T08:41:59.376Z,13.07
2023-04-15T08:44:01.416Z,12.80
2023-04-15T08:46:00.329Z,13.23
2023-04-15T08:47:59.343Z,13.07
2023-04-15T08:49:58.347Z,13.67
2023-04-15T08:51:53.800Z,13.53
2023-04-15T08:53:50.152Z,12.80
2023-04-15T08:55:49.282Z,13.07
2023-04-15T08:57:45.068Z,13.17
2023-04-15T08:59:40.722Z,29.70
2023-04-15T09:01:40.479Z,13.70
2023-04-15T09:03:37.917Z,13.13
2023-04-15T09:05:35.432Z,14.30
2023-04-15T09:07:30.982Z,14.43
2023-04-15T09:09:26.051Z,12.70
2023-04-15T09:11:22.154Z,12.53
2023-04-15T09:13:17.502Z,13.93
2023-04-15T09:15:16.506Z,13.60
2023-04-15T09:17:14.539Z,14.30
2023-04-15T09:19:24.535Z,13.43
2023-04-15T09:21:20.841Z,12.63
2023-04-15T09:23:17.766Z,12.67
2023-04-15T09:25:34.285Z,12.60
2023-04-15T09:27:33.161Z,13.13
2023-04-15T09:29:28.776Z,12.97
2023-04-15T09:31:33.123Z,12.87
2023-04-15T09:33:32.131Z,13.40
2023-04-15T09:35:28.877Z,14.53
2023-04-15T09:37:38.465Z,14.63
2023-04-15T09:39:50.068Z,13.43
2023-04-15T09:41:45.314Z,14.83
2023-04-15T09:43:42.405Z,14.13
2023-04-15T09:45:39.042Z,14.13
2023-04-15T09:47:35.197Z,13.83
2023-04-15T09:49:33.091Z,12.70
2023-04-15T09:51:37.864Z,13.40
2023-04-15T09:53:35.801Z,12.87
2023-04-15T09:55:35.998Z,19.77
2023-04-15T09:57:38.046Z,14.20
2023-04-15T09:59:33.607Z,13.27
2023-04-15T10:01:28.910Z,13.13
2023-04-15T10:03:26.078Z,12.57
2023-04-15T10:05:24.413Z,12.30
2023-04-15T10:07:20.962Z,12.83
2023-04-15T10:09:16.356Z,12.83
2023-04-15T10:11:12.223Z,12.67
2023-04-15T10:13:07.738Z,12.80
2023-04-15T10:15:08.376Z,12.13
2023-04-15T10:17:05.341Z,12.27
2023-04-15T10:19:01.548Z,12.50
2023-04-15T10:20:59.605Z,11.83
2023-04-15T10:22:56.557Z,11.30
2023-04-15T10:24:51.896Z,12.50
2023-04-15T10:26:47.964Z,11.50
2023-04-15T10:28:43.474Z,11.93
2023-04-15T10:30:39.679Z,11.80
2023-04-15T10:32:35.625Z,12.20
2023-04-15T10:34:32.989Z,11.73
2023-04-15T10:36:31.225Z,11.83
2023-04-15T10:38:35.489Z,11.47
2023-04-15T10:40:34.832Z,11.20
2023-04-15T10:42:37.776Z,11.50
2023-04-15T10:44:33.319Z,14.30
2023-04-15T10:46:40.218Z,13.10
2023-04-15T10:48:35.827Z,17.70
2023-04-15T10:50:35.030Z,12.77
2023-04-15T10:52:33.244Z,12.93
2023-04-15T10:54:39.049Z,12.97
2023-04-15T10:56:35.055Z,14.23
2023-04-15T10:58:45.603Z,12.67
2023-04-15T11:00:40.687Z,11.97
2023-04-15T11:02:47.427Z,12.53
2023-04-15T11:04:57.690Z,11.47
2023-04-15T11:07:09.269Z,11.90
2023-04-15T11:09:09.808Z,11.50
2023-04-15T11:11:05.040Z,10.73
2023-04-15T11:13:02.371Z,11.57
2023-04-15T11:14:57.662Z,11.40
2023-04-15T11:16:52.894Z,10.83
2023-04-15T11:18:57.628Z,11.07
2023-04-15T11:20:54.813Z,11.20
2023-04-15T11:22:51.188Z,11.17
2023-04-15T11:24:53.200Z,11.00
2023-04-15T11:26:49.091Z,10.57
2023-04-15T11:28:45.314Z,11.10
2023-04-15T11:30:41.709Z,11.37
2023-04-15T11:32:37.118Z,12.63
2023-04-15T11:34:33.316Z,11.17
2023-04-15T11:36:32.166Z,11.57
2023-04-15T11:38:28.085Z,13.57
2023-04-15T11:40:30.046Z,12.03
2023-04-15T11:42:28.195Z,12.20
2023-04-15T11:44:30.604Z,11.27
2023-04-15T11:46:32.806Z,10.90
2023-04-15T11:48:29.608Z,11.27
2023-04-15T11:50:26.490Z,10.10
2023-04-15T11:52:21.794Z,11.23
2023-04-15T11:54:22.409Z,11.27
2023-04-15T11:56:24.730Z,10.40
2023-04-15T11:58:21.532Z,10.23
2023-04-15T12:00:18.947Z,10.30
2023-04-15T12:02:15.810Z,10.53
2023-04-15T12:04:14.951Z,11.07
2023-04-15T12:06:13.390Z,10.53
2023-04-15T12:08:08.658Z,10.60
2023-04-15T12:10:07.545Z,10.93
2023-04-15T12:12:05.526Z,9.80
2023-04-15T12:14:05.854Z,12.27
2023-04-15T12:16:04.281Z,12.90
2023-04-15T12:18:08.148Z,13.37
2023-04-15T12:20:04.437Z,24.47
2023-04-15T12:22:04.503Z,16.30
2023-04-15T12:24:07.563Z,12.13
2023-04-15T12:26:08.358Z,12.53
2023-04-15T12:28:25.369Z,10.80
2023-04-15T12:30:30.273Z,10.07
2023-04-15T12:32:28.657Z,11.17
2023-04-15T12:34:31.250Z,10.50
2023-04-15T12:36:28.439Z,11.33
2023-04-15T12:38:23.738Z,11.40
2023-04-15T12:40:23.070Z,11.03
2023-04-15T12:42:20.653Z,12.00
2023-04-15T12:44:28.006Z,12.33
2023-04-15T12:46:25.201Z,13.50
2023-04-15T12:48:22.069Z,11.03
2023-04-15T12:50:17.936Z,11.20
2023-04-15T12:52:15.313Z,10.53
2023-04-15T12:54:12.494Z,10.70
2023-04-15T12:56:09.242Z,9.17
2023-04-15T12:58:04.792Z,10.13
2023-04-15T13:00:07.009Z,11.07
2023-04-15T13:02:03.390Z,12.27
2023-04-15T13:04:05.278Z,9.53
2023-04-15T13:06:02.486Z,9.43
2023-04-15T13:07:58.387Z,9.20
2023-04-15T13:09:54.422Z,8.80
2023-04-15T13:11:50.563Z,9.27
2023-04-15T13:14:48.575Z,9.00
2023-04-15T13:17:23.838Z,9.40
2023-04-15T13:19:20.777Z,10.43
2023-04-15T13:21:58.302Z,10.17
2023-04-15T13:24:18.606Z,10.93
2023-04-15T13:26:46.388Z,8.47
2023-04-15T13:28:59.396Z,8.77
2023-04-15T13:30:55.532Z,8.83
2023-04-15T13:32:54.124Z,9.60
2023-04-15T13:34:54.086Z,9.47
2023-04-15T13:36:56.820Z,10.07
2023-04-15T13:38:52.897Z,8.90
2023-04-15T13:41:15.879Z,9.10
2023-04-15T13:43:11.952Z,8.87
2023-04-15T13:58:24.239Z,9.23
2023-04-15T14:01:07.283Z,8.43
2023-04-15T14:04:37.454Z,8.73
2023-04-15T14:06:41.820Z,13.47
2023-04-15T14:09:00.152Z,10.93
2023-04-15T14:11:26.068Z,11.00
2023-04-15T14:13:50.211Z,8.60
2023-04-15T14:16:30.608Z,7.83
2023-04-15T14:22:59.894Z,7.63
2023-04-15T14:24:57.289Z,8.70
2023-04-15T14:26:54.899Z,9.27
2023-04-15T14:28:50.497Z,9.77
2023-04-15T14:30:45.819Z,10.47
2023-04-15T14:32:46.527Z,8.70
2023-04-15T14:34:41.952Z,7.97
2023-04-15T14:36:40.434Z,9.70
2023-04-15T14:41:52.652Z,8.33
2023-04-15T14:43:48.869Z,8.50
2023-04-15T14:45:49.897Z,7.67
2023-04-15T14:47:51.050Z,17.87
2023-04-15T14:50:24.154Z,10.83
2023-04-15T14:58:12.569Z,7.77
2023-04-15T15:00:16.186Z,7.87
2023-04-15T15:02:17.278Z,132.87
2023-04-15T15:04:22.233Z,15.43
2023-04-15T15:06:18.496Z,13.03
2023-04-15T15:08:14.855Z,10.50
2023-04-15T15:10:12.877Z,7.60
2023-04-15T15:12:12.144Z,8.17
2023-04-15T15:14:07.479Z,8.80
2023-04-15T15:16:03.310Z,9.40
2023-04-15T15:17:59.186Z,9.17
2023-04-15T15:20:03.686Z,10.20
2023-04-15T15:21:58.986Z,9.10
2023-04-15T15:23:58.612Z,9.03
2023-04-15T15:25:59.148Z,9.60
2023-04-15T15:28:02.527Z,9.53
2023-04-15T15:30:15.221Z,13.37
2023-04-15T15:32:11.042Z,12.47
2023-04-15T15:34:07.452Z,11.13
2023-04-15T15:36:09.876Z,11.70
2023-04-15T15:38:05.758Z,10.73
2023-04-15T15:40:15.320Z,10.00
2023-04-15T15:46:11.836Z,8.90
2023-04-15T15:48:08.899Z,11.43
2023-04-15T15:50:12.330Z,9.90
2023-04-15T15:52:15.794Z,8.83
2023-04-15T15:54:18.601Z,9.07
2023-04-15T15:56:16.804Z,9.10
2023-04-15T15:58:12.301Z,9.53
2023-04-15T16:00:12.797Z,13.50
2023-04-15T16:02:13.330Z,8.97
2023-04-15T16:04:08.850Z,8.43
2023-04-15T16:06:04.383Z,7.57
2023-04-15T16:07:59.639Z,7.73
2023-04-15T16:09:55.997Z,8.07
2023-04-15T16:11:54.099Z,7.60
2023-04-15T16:13:49.610Z,8.63
2023-04-15T16:15:44.675Z,8.03
2023-04-15T16:17:42.845Z,8.23
2023-04-15T16:19:38.408Z,8.87
2023-04-15T16:21:34.206Z,8.50
2023-04-15T16:23:31.575Z,7.33
2023-04-15T16:25:27.219Z,7.30
2023-04-15T16:27:22.338Z,7.37
2023-04-15T16:29:17.725Z,6.70
2023-04-15T16:31:14.372Z,7.87
2023-04-15T16:33:12.796Z,8.00
2023-04-15T16:35:08.807Z,7.70
2023-04-15T16:37:04.298Z,6.47
2023-04-15T16:38:59.591Z,7.70
2023-04-15T16:40:55.010Z,8.17
2023-04-15T16:42:50.343Z,7.60
2023-04-15T16:44:47.118Z,6.97
2023-04-15T16:46:42.516Z,6.50
2023-04-15T16:48:40.601Z,6.87
2023-04-15T16:50:35.803Z,6.70
2023-04-15T16:52:32.693Z,7.03
2023-04-15T16:54:29.288Z,6.93
2023-04-15T16:56:24.780Z,6.37
2023-04-15T16:58:20.010Z,6.13
2023-04-15T17:00:17.027Z,7.30
2023-04-15T17:02:14.358Z,6.73
2023-04-15T17:04:13.125Z,6.50
2023-04-15T17:06:08.808Z,7.07
2023-04-15T17:08:04.488Z,8.27
2023-04-15T17:09:59.492Z,7.40
2023-04-15T17:11:54.953Z,7.40
2023-04-15T17:13:50.105Z,7.23
2023-04-15T17:15:45.586Z,7.90
2023-04-15T17:17:41.139Z,8.40
2023-04-15T17:19:40.877Z,11.87
2023-04-15T17:21:37.639Z,9.80
2023-04-15T17:23:33.466Z,73.23
2023-04-15T17:25:30.934Z,10.87
2023-04-15T17:27:28.941Z,8.40
2023-04-15T17:29:24.940Z,6.40
2023-04-15T17:31:21.094Z,7.50
2023-04-15T17:33:56.295Z,7.00
2023-04-15T17:35:34.824Z,8.27
2023-04-15T17:37:29.825Z,8.10
2023-04-15T17:39:25.684Z,7.93
2023-04-15T17:41:20.764Z,8.77
2023-04-15T17:43:16.159Z,7.50
2023-04-15T17:45:12.131Z,8.43
2023-04-15T17:47:07.669Z,8.23
2023-04-15T17:49:02.887Z,8.70
2023-04-15T17:51:00.956Z,8.40
2023-04-15T17:52:56.103Z,7.67
2023-04-15T17:54:51.863Z,8.47
2023-04-15T17:56:47.004Z,7.40
2023-04-15T17:58:42.440Z,7.37
2023-04-15T18:00:37.702Z,7.10
2023-04-15T18:02:36.124Z,6.97
2023-04-15T18:04:32.289Z,6.90
2023-04-15T18:06:31.093Z,7.03
2023-04-15T18:08:26.336Z,10.97
2023-04-15T18:10:22.596Z,9.77
2023-04-15T18:12:17.732Z,8.57
2023-04-15T18:14:20.344Z,7.90
2023-04-15T18:16:26.594Z,6.83
2023-04-15T18:18:23.748Z,7.00
2023-04-15T18:20:19.100Z,7.97
2023-04-15T18:22:17.557Z,9.47
2023-04-15T18:24:12.728Z,10.50
2023-04-15T18:26:08.460Z,20.10
2023-04-15T18:28:03.952Z,10.63
2023-04-15T18:29:59.705Z,11.07
2023-04-15T18:31:55.165Z,7.90
2023-04-15T18:33:50.692Z,7.07
2023-04-15T18:35:47.543Z,7.37
2023-04-15T18:37:47.431Z,7.70
2023-04-15T18:39:45.818Z,6.80
2023-04-15T18:41:42.174Z,7.40
2023-04-15T18:43:37.705Z,7.80
2023-04-15T18:45:33.609Z,8.53
2023-04-15T18:47:29.834Z,7.87
2023-04-15T18:49:27.286Z,7.53
2023-04-15T18:51:22.924Z,8.80
2023-04-15T18:53:21.593Z,7.37
2023-04-15T18:55:19.200Z,10.03
2023-04-15T18:57:15.236Z,7.87
2023-04-15T18:59:29.555Z,40.60
2023-04-15T19:01:26.965Z,32.00
2023-04-15T19:03:22.206Z,12.23
2023-04-15T19:05:17.971Z,9.73
2023-04-15T19:07:13.171Z,8.70
2023-04-15T19:09:11.404Z,8.53
2023-04-15T19:11:06.749Z,8.77
2023-04-15T19:13:02.898Z,7.87
2023-04-15T19:14:59.596Z,7.93
2023-04-15T19:16:55.408Z,8.00
2023-04-15T19:18:50.865Z,7.43
2023-04-15T19:20:46.502Z,7.80
2023-04-15T19:22:43.951Z,7.97
2023-04-15T19:24:43.270Z,8.73
2023-04-15T19:26:40.145Z,8.23
2023-04-15T19:28:36.728Z,7.60
2023-04-15T19:30:32.569Z,8.73
2023-04-15T19:32:28.537Z,8.03
2023-04-15T19:34:25.167Z,8.47
2023-04-15T19:36:21.492Z,8.50
2023-04-15T19:38:17.053Z,7.37
2023-04-15T19:40:16.569Z,8.00
2023-04-15T19:42:12.005Z,12.00
2023-04-15T19:44:08.115Z,17.57
2023-04-15T19:46:03.944Z,12.23
2023-04-15T19:47:59.500Z,8.97
2023-04-15T19:49:54.685Z,7.93
2023-04-15T19:51:51.879Z,7.03
2023-04-15T19:53:47.200Z,7.40
2023-04-15T19:55:45.894Z,6.73
2023-04-15T19:57:41.014Z,7.47
2023-04-15T19:59:37.861Z,8.17
2023-04-15T20:01:32.998Z,7.30
2023-04-15T20:03:28.762Z,9.37
2023-04-15T20:05:24.271Z,7.97
2023-04-15T20:07:19.708Z,7.90
2023-04-15T20:09:14.786Z,7.40
2023-04-15T20:11:13.311Z,7.50
2023-04-15T20:13:10.576Z,9.27
2023-04-15T20:15:06.365Z,7.93
2023-04-15T20:17:03.449Z,9.80
2023-04-15T20:19:02.038Z,9.73
2023-04-15T20:20:57.403Z,11.57
2023-04-15T20:22:53.298Z,10.13
2023-04-15T20:24:48.412Z,10.53
2023-04-15T20:26:46.519Z,9.93
2023-04-15T20:28:41.966Z,9.97
2023-04-15T20:30:45.033Z,10.03
2023-04-15T20:32:43.712Z,11.50
2023-04-15T20:34:40.194Z,10.50
2023-04-15T20:36:35.219Z,10.17
2023-04-15T20:38:30.843Z,10.87
2023-04-15T20:40:26.763Z,12.03
2023-04-15T20:42:25.026Z,11.57
2023-04-15T20:44:20.121Z,11.80
2023-04-15T20:46:20.958Z,11.47
2023-04-15T20:48:16.464Z,11.57
2023-04-15T20:50:13.245Z,11.90
2023-04-15T20:52:10.855Z,10.73
2023-04-15T20:54:06.456Z,13.13
2023-04-15T20:56:02.229Z,12.87
2023-04-15T20:58:00.394Z,13.73
2023-04-15T20:59:56.889Z,12.90
2023-04-15T21:01:52.645Z,35.07
2023-04-15T21:03:47.910Z,19.70
2023-04-15T21:05:43.372Z,14.87
2023-04-15T21:07:38.544Z,14.40
2023-04-15T21:09:35.923Z,13.23
2023-04-15T21:11:53.217Z,13.87
2023-04-15T21:13:50.849Z,13.87
2023-04-15T21:15:46.081Z,12.80
2023-04-15T21:17:42.450Z,13.87
2023-04-15T21:19:38.071Z,13.87
2023-04-15T21:21:33.469Z,13.70
2023-04-15T21:23:28.913Z,14.10
2023-04-15T21:25:24.704Z,14.80
2023-04-15T21:27:19.914Z,15.00
2023-04-15T21:29:17.917Z,14.43
2023-04-15T21:31:13.191Z,13.97
2023-04-15T21:33:08.603Z,14.87
2023-04-15T21:35:03.637Z,13.83
2023-04-15T21:36:59.023Z,17.87
2023-04-15T21:38:55.019Z,15.03
2023-04-15T21:40:52.580Z,16.00
2023-04-15T21:42:48.914Z,15.10
2023-04-15T21:44:47.328Z,14.87
2023-04-15T21:46:46.013Z,15.13
2023-04-15T21:48:42.042Z,15.00
2023-04-15T21:50:39.835Z,14.63
2023-04-15T21:52:35.545Z,14.70
2023-04-15T21:54:31.303Z,14.93
2023-04-15T21:56:28.520Z,15.43
2023-04-15T21:58:23.915Z,14.83
2023-04-15T22:00:25.855Z,15.97
2023-04-15T22:02:21.650Z,15.70
2023-04-15T22:04:17.865Z,15.17
2023-04-15T22:06:13.881Z,15.83
2023-04-15T22:08:09.630Z,15.60
2023-04-15T22:10:05.091Z,15.47
2023-04-15T22:12:01.439Z,16.40
2023-04-15T22:13:57.502Z,15.90
2023-04-15T22:15:55.975Z,16.10
2023-04-15T22:17:51.808Z,15.87
2023-04-15T22:19:48.101Z,15.40
2023-04-15T22:21:43.419Z,15.93
2023-04-15T22:23:39.174Z,16.17
2023-04-15T22:25:34.278Z,16.33
2023-04-15T22:27:29.617Z,17.03
2023-04-15T22:29:24.941Z,16.57
2023-04-15T22:31:23.159Z,16.70
2023-04-15T22:33:18.228Z,16.57
2023-04-15T22:35:13.606Z,16.67
2023-04-15T22:37:09.226Z,17.60
2023-04-15T22:39:04.900Z,17.47
2023-04-15T22:41:00.200Z,17.97
2023-04-15T22:42:55.593Z,18.10
2023-04-15T22:44:51.108Z,17.90
2023-04-15T22:46:49.115Z,16.83
2023-04-15T22:48:44.625Z,17.47
2023-04-15T22:50:40.251Z,16.23
2023-04-15T22:52:35.376Z,17.03
2023-04-15T22:54:30.841Z,17.07
2023-04-15T22:56:26.258Z,16.57
2023-04-15T22:58:21.656Z,16.63
2023-04-15T23:00:17.202Z,16.07
2023-04-15T23:02:15.345Z,16.50
2023-04-15T23:04:23.127Z,16.07
2023-04-15T23:06:23.137Z,16.00
2023-04-15T23:08:18.878Z,15.60
2023-04-15T23:10:15.849Z,15.20
2023-04-15T23:12:12.057Z,15.80
2023-04-15T23:14:07.443Z,16.00
2023-04-15T23:16:02.590Z,15.80
2023-04-15T23:18:02.285Z,14.60
2023-04-15T23:19:57.464Z,15.97
2023-04-15T23:21:53.329Z,15.17
2023-04-15T23:23:48.431Z,15.13
2023-04-15T23:25:43.948Z,15.47
2023-04-15T23:27:39.271Z,15.10
2023-04-15T23:29:34.952Z,15.17
2023-04-15T23:31:30.095Z,15.03
2023-04-15T23:33:28.298Z,15.50
2023-04-15T23:35:23.396Z,14.90
2023-04-15T23:37:20.560Z,14.70
2023-04-15T23:39:15.925Z,15.23
2023-04-15T23:41:12.240Z,14.83
2023-04-15T23:43:07.464Z,14.70
2023-04-15T23:45:02.900Z,15.03
2023-04-15T23:46:58.084Z,15.43
2023-04-15T23:48:56.147Z,15.70
2023-04-15T23:50:51.206Z,16.10
2023-04-15T23:52:46.825Z,16.07
2023-04-15T23:54:42.615Z,15.73
2023-04-15T23:56:38.035Z,15.03
2023-04-15T23:58:34.515Z,15.40
